Time;durP1;ratioP1;P1;durP2;ratioP2;P2;SDS_P1;SDS_P2;PMS_P1;PMS_P2;Temp;Humidity;BMP_temperature;BMP_pressure;BME280_temperature;BME280_humidity;BME280_pressure;Samples;Min_cycle;Max_cycle;Signal;HPM_P1;HPM_P2
2022/01/16 00:01:02;;;;;;;8.68;3.58;;;;;;;5.69;100.00;101534.94;4997093;28;20034;-71
2022/01/16 00:06:13;;;;;;;7.07;3.25;;;;;;;5.68;100.00;101529.91;4989175;28;20501;-71
2022/01/16 00:08:39;;;;;;;7.70;3.28;;;;;;;5.56;100.00;101522.41;4989226;28;20026;-71
2022/01/16 00:11:04;;;;;;;7.50;3.50;;;;;;;5.56;100.00;101511.72;4988930;28;20535;-71
2022/01/16 00:13:30;;;;;;;7.85;3.63;;;;;;;5.58;100.00;101511.41;4994597;28;20157;-72
2022/01/16 00:15:56;;;;;;;9.65;3.67;;;;;;;5.52;100.00;101504.63;4992352;28;20041;-71
2022/01/16 00:18:25;;;;;;;6.65;3.63;;;;;;;5.64;100.00;101494.19;4989450;28;20037;-71
2022/01/16 00:20:51;;;;;;;8.27;3.88;;;;;;;5.50;100.00;101484.34;4996007;28;20069;-71
2022/01/16 00:23:28;;;;;;;9.70;2.90;;;;;;;5.57;100.00;101483.16;4988391;28;20081;-71
2022/01/16 00:25:56;;;;;;;7.95;3.70;;;;;;;5.55;100.00;101491.47;4990301;28;20034;-71
2022/01/16 00:28:23;;;;;;;7.22;3.42;;;;;;;5.42;100.00;101501.06;4988505;28;20058;-71
2022/01/16 00:30:50;;;;;;;8.13;3.83;;;;;;;5.47;100.00;101500.97;4991650;28;20475;-71
2022/01/16 00:33:17;;;;;;;8.48;3.17;;;;;;;5.37;100.00;101506.53;4988772;28;20635;-71
2022/01/16 00:35:42;;;;;;;7.75;3.50;;;;;;;5.48;100.00;101502.53;4988129;28;20042;-71
2022/01/16 00:38:08;;;;;;;9.00;3.83;;;;;;;5.48;100.00;101497.19;4985937;28;20034;-71
2022/01/16 00:40:34;;;;;;;6.32;3.33;;;;;;;5.57;100.00;101488.50;4987609;28;20030;-71
2022/01/16 00:43:00;;;;;;;12.23;3.63;;;;;;;5.46;100.00;101487.91;4993236;28;20376;-71
2022/01/16 00:45:26;;;;;;;11.50;3.40;;;;;;;5.46;100.00;101499.38;4986145;28;20032;-71
2022/01/16 00:47:51;;;;;;;7.15;2.95;;;;;;;5.39;100.00;101491.00;4989888;28;20038;-71
2022/01/16 00:50:17;;;;;;;11.90;4.03;;;;;;;5.36;100.00;101472.88;4988813;28;20062;-72
2022/01/16 00:52:43;;;;;;;6.70;2.92;;;;;;;5.32;100.00;101455.88;4988715;28;20113;-72
2022/01/16 00:55:09;;;;;;;6.15;3.25;;;;;;;5.29;100.00;101435.13;5006758;28;20042;-72
2022/01/16 00:57:34;;;;;;;15.27;3.55;;;;;;;5.22;100.00;101444.63;4988971;28;20034;-72
2022/01/16 01:00:00;;;;;;;8.95;3.80;;;;;;;5.13;100.00;101433.88;4989871;28;20026;-72
2022/01/16 01:02:25;;;;;;;6.15;3.05;;;;;;;5.13;100.00;101419.75;4979058;28;20034;-72
2022/01/16 01:04:51;;;;;;;10.13;4.03;;;;;;;5.26;100.00;101419.72;4984336;28;20029;-72
2022/01/16 01:07:20;;;;;;;5.43;2.65;;;;;;;5.26;100.00;101427.72;4991050;28;20438;-72
2022/01/16 01:09:46;;;;;;;11.45;3.65;;;;;;;5.11;100.00;101441.38;4976075;28;20057;-72
2022/01/16 01:12:20;;;;;;;4.78;3.03;;;;;;;5.14;100.00;101432.78;4985048;28;20132;-72
2022/01/16 01:15:04;;;;;;;6.85;3.10;;;;;;;5.25;100.00;101444.03;4987631;28;20034;-72
2022/01/16 01:17:34;;;;;;;6.53;3.05;;;;;;;5.13;100.00;101428.53;4991488;28;20510;-72
2022/01/16 01:20:00;;;;;;;4.90;3.08;;;;;;;5.23;100.00;101422.19;4983913;28;20125;-72
2022/01/16 01:22:25;;;;;;;10.80;4.38;;;;;;;5.17;100.00;101416.16;4987462;28;20123;-72
2022/01/16 01:24:51;;;;;;;9.88;3.78;;;;;;;5.16;100.00;101419.94;4970751;28;20031;-72
2022/01/16 01:27:26;;;;;;;6.78;3.28;;;;;;;5.14;100.00;101413.31;4987417;28;20065;-72
2022/01/16 01:30:01;;;;;;;12.95;3.50;;;;;;;5.17;100.00;101412.69;4990683;28;20042;-72
2022/01/16 01:32:27;;;;;;;8.50;3.17;;;;;;;5.11;100.00;101416.59;4991186;28;20042;-72
2022/01/16 01:34:52;;;;;;;7.53;3.58;;;;;;;5.08;100.00;101441.19;4990818;28;20110;-72
2022/01/16 01:37:18;;;;;;;10.63;3.38;;;;;;;5.23;100.00;101432.84;4991125;28;20034;-72
2022/01/16 01:39:43;;;;;;;12.43;4.65;;;;;;;5.15;100.00;101429.00;4990915;28;20045;-72
2022/01/16 01:42:11;;;;;;;8.63;4.20;;;;;;;5.18;100.00;101436.44;4987964;28;20101;-72
2022/01/16 01:52:53;;;;;;;13.32;3.88;;;;;;;5.02;100.00;101333.75;4984118;28;20042;-72
2022/01/16 01:55:19;;;;;;;6.68;3.38;;;;;;;5.11;100.00;101312.50;4975074;28;20062;-72
2022/01/16 01:57:45;;;;;;;9.40;3.83;;;;;;;5.06;100.00;101309.91;4979617;28;20353;-73
2022/01/16 02:00:17;;;;;;;7.78;3.42;;;;;;;5.13;100.00;101313.75;4983731;28;20058;-73
2022/01/16 02:03:10;;;;;;;10.30;3.78;;;;;;;5.05;100.00;101317.13;4981665;28;20403;-73
2022/01/16 02:05:38;;;;;;;16.15;4.55;;;;;;;4.97;100.00;101344.56;4984529;28;20032;-73
2022/01/16 02:08:05;;;;;;;9.63;3.60;;;;;;;5.00;100.00;101359.94;4988249;28;20065;-73
2022/01/16 02:10:30;;;;;;;10.00;4.25;;;;;;;4.89;100.00;101361.25;4989458;28;20033;-73
2022/01/16 02:13:01;;;;;;;12.10;4.78;;;;;;;4.88;100.00;101361.56;4988182;28;20034;-73
2022/01/16 02:29:28;;;;;;;9.48;3.72;;;;;;;4.87;100.00;101357.31;4986935;28;20564;-73
2022/01/16 02:34:35;;;;;;;8.45;3.85;;;;;;;4.87;100.00;101363.44;4977622;28;20035;-73
2022/01/16 02:37:06;;;;;;;11.13;4.45;;;;;;;4.80;100.00;101376.38;4976851;28;20073;-73
2022/01/16 02:39:35;;;;;;;7.38;3.85;;;;;;;4.90;100.00;101376.16;4990225;28;20077;-74
2022/01/16 02:42:01;;;;;;;8.23;3.47;;;;;;;4.86;100.00;101383.19;4990430;28;20038;-73
2022/01/16 02:46:52;;;;;;;10.98;4.25;;;;;;;4.87;100.00;101374.13;4973387;28;20492;-73
2022/01/16 02:49:18;;;;;;;8.63;3.58;;;;;;;4.82;100.00;101370.75;4987404;28;20022;-73
2022/01/16 02:51:45;;;;;;;12.05;4.88;;;;;;;4.88;100.00;101365.00;4988270;28;20130;-73
2022/01/16 02:54:10;;;;;;;14.20;4.63;;;;;;;4.87;100.00;101347.44;4981201;28;20046;-73
2022/01/16 02:56:38;;;;;;;8.02;4.38;;;;;;;4.85;100.00;101348.81;4988312;28;20034;-73
2022/01/16 02:59:04;;;;;;;9.27;3.65;;;;;;;4.96;100.00;101360.84;4986303;28;20039;-73
2022/01/16 03:01:29;;;;;;;13.95;4.97;;;;;;;4.83;100.00;101334.97;4976994;28;20384;-73
2022/01/16 03:03:55;;;;;;;11.93;4.15;;;;;;;4.72;100.00;101333.63;4983499;28;20034;-73
2022/01/16 03:06:25;;;;;;;8.63;3.05;;;;;;;4.75;100.00;101328.47;4993923;28;20042;-74
2022/01/16 03:08:53;;;;;;;14.00;4.53;;;;;;;4.75;100.00;101333.81;4986694;28;20070;-73
2022/01/16 03:13:49;;;;;;;11.55;5.00;;;;;;;4.91;100.00;101334.28;4977145;28;20035;-73
2022/01/16 03:16:20;;;;;;;13.37;4.63;;;;;;;4.84;100.00;101323.25;4981005;28;20066;-73
2022/01/16 03:24:15;;;;;;;5.63;2.72;;;;;;;5.03;100.00;101305.19;4985294;28;20031;-73
2022/01/16 03:26:41;;;;;;;14.27;4.45;;;;;;;4.91;100.00;101311.06;4979832;28;20601;-73
2022/01/16 03:29:06;;;;;;;9.30;4.18;;;;;;;4.92;100.00;101309.97;4993723;28;20542;-73
2022/01/16 03:31:31;;;;;;;12.43;3.72;;;;;;;4.89;100.00;101299.91;4988979;28;20049;-73
2022/01/16 03:33:57;;;;;;;10.45;3.55;;;;;;;4.93;100.00;101303.53;4990640;28;20125;-73
2022/01/16 03:36:22;;;;;;;13.38;5.38;;;;;;;4.88;100.00;101300.22;4987276;28;20038;-73
2022/01/16 03:38:48;;;;;;;13.73;5.07;;;;;;;4.91;100.00;101304.94;4974740;28;20118;-73
2022/01/16 03:41:13;;;;;;;13.35;5.38;;;;;;;4.84;100.00;101294.66;4988547;28;20197;-73
2022/01/16 03:43:39;;;;;;;9.55;3.80;;;;;;;4.83;100.00;101289.63;4982280;28;20058;-73
2022/01/16 03:46:05;;;;;;;9.73;4.88;;;;;;;4.80;100.00;101283.00;4975212;28;20050;-73
2022/01/16 03:48:30;;;;;;;9.85;4.18;;;;;;;4.82;100.00;101288.06;5001315;28;20053;-73
2022/01/16 03:50:56;;;;;;;16.38;5.32;;;;;;;4.84;100.00;101278.66;4987869;28;20027;-73
2022/01/16 03:53:21;;;;;;;12.57;3.80;;;;;;;4.81;100.00;101273.94;4978768;28;20062;-73
2022/01/16 03:55:49;;;;;;;10.88;3.58;;;;;;;4.90;100.00;101279.31;4985590;28;20058;-73
2022/01/16 03:58:15;;;;;;;11.27;4.28;;;;;;;4.95;100.00;101272.03;4974421;28;20369;-73
2022/01/16 04:00:40;;;;;;;12.57;4.75;;;;;;;4.93;100.00;101281.41;4974370;28;20037;-73
2022/01/16 04:03:06;;;;;;;15.48;5.45;;;;;;;4.97;100.00;101256.50;4976316;28;20029;-73
2022/01/16 04:05:31;;;;;;;19.00;5.35;;;;;;;4.88;100.00;101265.53;4970670;28;20466;-73
2022/01/16 04:08:02;;;;;;;13.32;4.38;;;;;;;4.92;100.00;101255.78;4989758;28;20038;-73
2022/01/16 04:10:27;;;;;;;15.07;5.38;;;;;;;4.90;100.00;101253.44;4992769;28;20096;-73
2022/01/16 04:12:53;;;;;;;9.30;4.25;;;;;;;4.95;100.00;101257.88;4992695;28;20042;-73
2022/01/16 04:17:45;;;;;;;11.38;3.63;;;;;;;5.21;100.00;101253.50;4986853;28;20109;-72
2022/01/16 04:20:15;;;;;;;16.20;4.43;;;;;;;5.08;100.00;101254.38;4991140;28;20398;-72
2022/01/16 04:22:47;;;;;;;15.77;4.85;;;;;;;4.99;100.00;101258.84;4992674;28;20038;-72
2022/01/16 04:25:13;;;;;;;12.95;4.93;;;;;;;4.95;100.00;101253.34;4979604;28;20093;-72
2022/01/16 04:27:39;;;;;;;9.23;4.57;;;;;;;4.86;100.00;101257.78;4990640;28;20038;-72
2022/01/16 04:30:05;;;;;;;17.75;4.22;;;;;;;4.87;100.00;101254.06;4992050;28;20104;-72
2022/01/16 04:32:30;;;;;;;11.98;4.22;;;;;;;4.90;100.00;101245.44;4986013;28;20027;-72
2022/01/16 04:34:56;;;;;;;10.82;4.85;;;;;;;4.96;100.00;101232.75;4973617;28;20031;-72
2022/01/16 04:37:21;;;;;;;12.10;4.68;;;;;;;4.98;100.00;101236.72;4974584;28;20117;-72
2022/01/16 04:39:52;;;;;;;14.35;4.80;;;;;;;5.15;100.00;101238.75;4982898;28;20052;-72
2022/01/16 04:45:02;;;;;;;18.23;4.30;;;;;;;5.02;100.00;101251.03;4976872;28;20043;-72
2022/01/16 04:47:29;;;;;;;16.10;4.88;;;;;;;4.98;100.00;101255.38;4986318;28;20122;-72
2022/01/16 04:49:54;;;;;;;8.85;3.50;;;;;;;4.91;100.00;101247.03;4985833;28;20023;-72
2022/01/16 04:52:22;;;;;;;14.38;3.88;;;;;;;4.93;100.00;101241.38;4974124;28;20648;-72
2022/01/16 04:54:48;;;;;;;10.32;3.20;;;;;;;5.01;100.00;101241.47;4988695;28;20033;-72
2022/01/16 04:57:13;;;;;;;9.57;3.67;;;;;;;5.18;100.00;101246.91;4987481;28;20034;-72
2022/01/16 04:59:40;;;;;;;13.20;4.15;;;;;;;5.23;100.00;101252.13;4986784;28;20049;-72
2022/01/16 05:02:05;;;;;;;12.43;4.57;;;;;;;5.37;100.00;101250.19;4988361;28;20041;-72
2022/01/16 05:04:31;;;;;;;8.73;4.07;;;;;;;5.20;100.00;101255.41;4991058;28;20034;-72
2022/01/16 05:06:56;;;;;;;11.25;4.32;;;;;;;5.25;100.00;101247.28;4991324;28;20042;-72
2022/01/16 05:09:21;;;;;;;13.95;4.22;;;;;;;5.21;100.00;101246.31;4990839;28;20384;-72
2022/01/16 05:11:53;;;;;;;12.20;4.40;;;;;;;5.12;100.00;101255.34;4984993;28;20026;-72
2022/01/16 05:17:03;;;;;;;10.23;3.45;;;;;;;5.09;100.00;101253.28;4975780;28;20053;-72
2022/01/16 05:19:28;;;;;;;9.50;3.30;;;;;;;5.46;100.00;101248.34;4978033;28;20042;-72
2022/01/16 05:21:53;;;;;;;8.52;3.63;;;;;;;5.27;100.00;101242.41;4988525;28;20109;-72
2022/01/16 05:24:19;;;;;;;7.13;3.28;;;;;;;5.22;100.00;101244.44;4986233;28;20530;-72
2022/01/16 05:26:45;;;;;;;9.50;3.35;;;;;;;5.29;100.00;101232.22;4990243;28;20042;-72
2022/01/16 05:29:11;;;;;;;8.50;3.83;;;;;;;5.31;100.00;101229.25;4986875;28;20038;-72
2022/01/16 05:31:37;;;;;;;16.65;5.47;;;;;;;5.20;100.00;101226.06;4986424;28;20121;-72
2022/01/16 05:34:03;;;;;;;13.90;4.07;;;;;;;5.38;100.00;101232.28;4987151;28;20634;-72
2022/01/16 05:36:28;;;;;;;11.02;3.80;;;;;;;5.23;100.00;101228.09;4981477;28;20035;-72
2022/01/16 05:38:54;;;;;;;15.05;4.30;;;;;;;5.45;100.00;101228.09;4986393;28;20488;-72
2022/01/16 05:41:20;;;;;;;18.13;4.82;;;;;;;5.30;100.00;101238.34;4970264;28;20487;-72
2022/01/16 05:43:46;;;;;;;10.95;3.95;;;;;;;5.30;100.00;101239.13;4981354;28;20042;-72
2022/01/16 05:46:13;;;;;;;6.90;2.92;;;;;;;5.33;100.00;101230.53;4980359;28;20088;-72
2022/01/16 05:48:39;;;;;;;9.07;3.72;;;;;;;5.26;100.00;101232.84;4984498;28;20045;-72
2022/01/16 05:51:04;;;;;;;10.13;3.97;;;;;;;5.29;100.00;101229.56;4977254;28;20031;-72
2022/01/16 05:53:30;;;;;;;9.38;3.67;;;;;;;5.24;100.00;101228.91;4978489;28;20066;-72
2022/01/16 05:55:55;;;;;;;18.83;4.53;;;;;;;5.09;100.00;101214.03;4990927;28;20841;-72
2022/01/16 05:58:20;;;;;;;8.10;3.50;;;;;;;5.27;100.00;101223.72;4983275;28;20080;-72
2022/01/16 06:00:48;;;;;;;9.10;4.10;;;;;;;5.38;100.00;101213.59;4977900;28;20038;-72
2022/01/16 06:03:14;;;;;;;10.68;3.55;;;;;;;5.43;100.00;101224.94;4987996;28;20107;-72
2022/01/16 06:05:39;;;;;;;13.23;3.65;;;;;;;5.35;100.00;101231.00;4971305;28;20400;-72
2022/01/16 06:08:11;;;;;;;13.40;3.47;;;;;;;5.28;100.00;101227.97;4997814;28;20038;-72
2022/01/16 06:10:37;;;;;;;10.50;4.00;;;;;;;5.05;100.00;101218.38;4986459;28;20097;-72
2022/01/16 06:13:04;;;;;;;8.02;3.45;;;;;;;5.22;100.00;101213.19;4990797;28;20034;-72
2022/01/16 06:15:29;;;;;;;14.05;4.47;;;;;;;5.25;100.00;101227.78;4986176;28;21817;-72
2022/01/16 06:17:55;;;;;;;10.55;4.47;;;;;;;5.13;100.00;101215.00;4972893;28;20034;-72
2022/01/16 06:20:20;;;;;;;9.38;3.58;;;;;;;5.08;100.00;101212.47;4982762;28;20089;-72
2022/01/16 06:22:46;;;;;;;13.18;2.97;;;;;;;5.24;100.00;101203.00;4987984;28;20042;-72
2022/01/16 06:25:12;;;;;;;9.18;3.13;;;;;;;5.26;100.00;101202.69;4962363;28;20046;-72
2022/01/16 06:27:39;;;;;;;7.47;3.42;;;;;;;5.30;100.00;101190.31;4991645;28;20041;-72
2022/01/16 06:30:07;;;;;;;12.50;2.92;;;;;;;5.15;100.00;101180.00;4961675;28;20033;-72
2022/01/16 06:32:33;;;;;;;10.05;3.90;;;;;;;4.96;100.00;101190.88;4980954;28;20050;-72
2022/01/16 06:34:58;;;;;;;10.35;3.70;;;;;;;4.95;100.00;101178.63;4984035;28;20038;-72
2022/01/16 06:37:24;;;;;;;8.73;3.90;;;;;;;4.98;100.00;101187.88;4986110;28;20042;-72
2022/01/16 06:39:49;;;;;;;14.35;4.40;;;;;;;4.96;100.00;101185.53;4988436;28;20034;-72
2022/01/16 06:42:14;;;;;;;10.43;4.65;;;;;;;4.86;100.00;101180.44;4993690;28;20506;-72
2022/01/16 06:44:40;;;;;;;11.85;4.28;;;;;;;5.06;100.00;101169.28;4990706;28;20117;-72
2022/01/16 06:47:05;;;;;;;12.52;4.30;;;;;;;5.21;100.00;101163.53;4991992;28;20026;-72
2022/01/16 06:49:31;;;;;;;16.40;3.67;;;;;;;5.06;100.00;101161.28;4994031;28;20530;-72
2022/01/16 06:51:57;;;;;;;9.90;4.32;;;;;;;4.94;100.00;101154.91;4991747;28;20074;-72
2022/01/16 06:54:23;;;;;;;15.90;5.72;;;;;;;4.86;100.00;101164.41;4994678;28;20132;-72
2022/01/16 06:56:48;;;;;;;11.43;3.88;;;;;;;5.08;100.00;101174.31;4994795;28;20034;-72
2022/01/16 06:59:14;;;;;;;17.80;5.75;;;;;;;5.07;100.00;101181.50;4989175;28;20459;-72
2022/01/16 07:01:39;;;;;;;11.20;4.97;;;;;;;5.25;100.00;101187.75;4967611;28;20023;-72
2022/01/16 07:04:04;;;;;;;13.40;4.03;;;;;;;5.05;100.00;101182.94;4976672;28;20526;-72
2022/01/16 07:06:30;;;;;;;10.48;4.10;;;;;;;5.06;100.00;101179.94;4984047;28;20035;-72
2022/01/16 07:08:55;;;;;;;8.98;4.38;;;;;;;5.00;100.00;101169.69;4999791;28;20045;-72
2022/01/16 07:11:21;;;;;;;12.02;4.72;;;;;;;4.86;100.00;101167.09;4988635;28;20034;-72
2022/01/16 07:13:46;;;;;;;13.95;4.55;;;;;;;4.92;100.00;101173.88;4992040;28;20070;-72
2022/01/16 07:16:12;;;;;;;13.27;5.45;;;;;;;4.99;100.00;101160.91;4992496;28;20041;-72
2022/01/16 07:18:40;;;;;;;15.10;4.40;;;;;;;4.89;100.00;101161.16;4993944;28;20026;-72
2022/01/16 07:21:12;;;;;;;13.38;4.30;;;;;;;4.87;100.00;101160.69;4993481;28;20034;-72
2022/01/16 07:23:42;;;;;;;12.40;4.82;;;;;;;5.01;100.00;101160.59;4974862;28;20035;-72
2022/01/16 07:26:07;;;;;;;14.23;5.10;;;;;;;4.92;100.00;101162.41;4978463;28;20038;-72
2022/01/16 07:28:33;;;;;;;17.00;5.03;;;;;;;4.92;100.00;101162.41;4990086;28;20034;-72
2022/01/16 07:30:58;;;;;;;20.58;4.50;;;;;;;5.04;100.00;101147.44;4991982;28;20063;-72
2022/01/16 07:33:24;;;;;;;12.10;4.30;;;;;;;5.05;100.00;101149.00;5005729;28;20038;-72
2022/01/16 07:35:49;;;;;;;17.13;5.55;;;;;;;4.91;100.00;101166.19;4988469;28;20109;-72
2022/01/16 07:38:15;;;;;;;21.17;4.93;;;;;;;5.05;100.00;101153.56;4992510;28;20038;-72
2022/01/16 07:40:40;;;;;;;12.63;4.82;;;;;;;4.99;100.00;101168.13;4993259;28;20035;-72
2022/01/16 07:43:06;;;;;;;25.42;5.97;;;;;;;5.01;100.00;101165.94;4992393;28;20105;-72
2022/01/16 07:45:32;;;;;;;17.75;5.10;;;;;;;4.99;100.00;101162.78;4987471;28;20038;-72
2022/01/16 07:47:58;;;;;;;16.92;5.80;;;;;;;5.03;100.00;101159.19;4986967;28;20022;-72
2022/01/16 07:50:23;;;;;;;20.65;5.90;;;;;;;5.00;100.00;101159.81;4992626;28;20030;-72
2022/01/16 07:52:49;;;;;;;15.05;6.22;;;;;;;5.01;100.00;101141.94;4990812;28;20030;-72
2022/01/16 07:55:15;;;;;;;24.98;6.63;;;;;;;4.93;100.00;101150.66;4973060;28;20492;-72
2022/01/16 07:57:41;;;;;;;18.20;6.38;;;;;;;4.90;100.00;101156.59;4973826;28;20656;-72
2022/01/16 08:00:07;;;;;;;21.70;5.32;;;;;;;5.17;100.00;101153.78;4988100;28;20045;-72
2022/01/16 08:02:38;;;;;;;17.92;4.82;;;;;;;5.16;100.00;101146.88;4993079;28;20026;-72
2022/01/16 08:05:03;;;;;;;22.00;6.07;;;;;;;5.05;100.00;101157.00;4973195;28;20041;-72
2022/01/16 08:07:32;;;;;;;22.77;6.47;;;;;;;5.15;100.00;101172.78;4992434;28;20354;-72
2022/01/16 08:09:57;;;;;;;24.30;7.18;;;;;;;5.07;100.00;101173.50;4990232;28;20391;-73
2022/01/16 08:12:23;;;;;;;22.17;7.70;;;;;;;5.04;100.00;101170.66;4990902;28;20037;-72
2022/01/16 08:14:48;;;;;;;16.02;5.68;;;;;;;5.09;100.00;101175.91;4992064;28;20037;-72
2022/01/16 08:17:14;;;;;;;17.90;5.57;;;;;;;4.99;100.00;101184.13;4992623;28;20038;-72
2022/01/16 08:19:39;;;;;;;16.33;6.10;;;;;;;5.08;100.00;101196.44;4992723;28;20069;-72
2022/01/16 08:22:04;;;;;;;18.67;6.35;;;;;;;4.98;100.00;101191.34;4992911;28;20118;-72
2022/01/16 08:24:32;;;;;;;23.23;7.53;;;;;;;5.11;100.00;101201.16;4991727;28;20038;-72
2022/01/16 08:26:57;;;;;;;16.80;6.28;;;;;;;5.19;100.00;101200.44;4990033;28;20457;-72
2022/01/16 08:29:23;;;;;;;15.35;6.15;;;;;;;5.08;100.00;101192.97;4992843;28;20038;-72
2022/01/16 08:31:48;;;;;;;16.42;6.50;;;;;;;5.24;100.00;101197.66;4981851;28;20031;-72
2022/01/16 08:34:13;;;;;;;25.95;5.95;;;;;;;5.21;100.00;101198.25;4974061;28;20503;-72
2022/01/16 08:36:39;;;;;;;15.02;5.55;;;;;;;5.11;100.00;101203.06;4973427;28;20057;-72
2022/01/16 08:39:04;;;;;;;17.90;6.22;;;;;;;5.10;100.00;101191.59;4979854;28;20034;-72
2022/01/16 08:41:31;;;;;;;20.20;5.25;;;;;;;5.13;100.00;101184.88;4983327;28;20038;-72
2022/01/16 08:43:56;;;;;;;17.83;6.18;;;;;;;5.11;100.00;101187.81;4975499;28;20089;-72
2022/01/16 08:46:23;;;;;;;28.75;7.07;;;;;;;5.03;100.00;101187.78;4991479;28;20050;-72
2022/01/16 08:48:50;;;;;;;16.33;5.32;;;;;;;5.05;100.00;101183.69;4991367;28;20088;-72
2022/01/16 08:51:16;;;;;;;18.23;5.65;;;;;;;4.98;100.00;101186.00;4989982;28;20041;-72
2022/01/16 08:53:41;;;;;;;11.27;4.82;;;;;;;5.07;100.00;101183.41;4986951;28;20039;-72
2022/01/16 08:56:07;;;;;;;24.60;7.45;;;;;;;5.01;100.00;101184.63;4985602;28;20038;-72
2022/01/16 08:58:32;;;;;;;19.23;5.65;;;;;;;5.04;100.00;101187.47;4989045;28;20038;-72
2022/01/16 09:00:58;;;;;;;17.65;5.63;;;;;;;5.11;100.00;101195.81;4988156;28;20034;-72
2022/01/16 09:03:23;;;;;;;18.60;6.70;;;;;;;5.05;100.00;101191.69;4988973;28;20125;-72
2022/01/16 09:05:51;;;;;;;15.65;6.10;;;;;;;5.11;100.00;101195.06;4971177;28;20070;-72
2022/01/16 09:08:18;;;;;;;22.67;6.13;;;;;;;5.20;100.00;101186.00;4989766;28;20411;-72
2022/01/16 09:10:44;;;;;;;18.40;4.82;;;;;;;5.14;100.00;101189.91;4985423;28;20041;-72
2022/01/16 09:13:11;;;;;;;25.30;6.20;;;;;;;5.14;100.00;101192.56;4979569;28;20034;-72
2022/01/16 09:15:40;;;;;;;16.25;5.72;;;;;;;5.22;100.00;101194.50;4979450;28;20034;-72
2022/01/16 09:18:05;;;;;;;13.32;5.75;;;;;;;5.19;100.00;101196.97;4990976;28;20065;-72
2022/01/16 09:20:32;;;;;;;14.93;4.95;;;;;;;5.15;100.00;101196.78;4971534;28;20034;-72
2022/01/16 09:22:58;;;;;;;21.05;6.60;;;;;;;5.29;100.00;101186.84;5003677;28;20047;-72
2022/01/16 09:25:23;;;;;;;24.38;6.15;;;;;;;5.25;100.00;101193.09;4984505;28;20040;-72
2022/01/16 09:27:50;;;;;;;20.98;6.85;;;;;;;5.20;100.00;101206.56;4970961;28;20030;-73
2022/01/16 09:30:19;;;;;;;13.10;4.47;;;;;;;5.23;100.00;101209.41;4989469;28;20046;-72
2022/01/16 09:32:44;;;;;;;16.35;5.40;;;;;;;5.24;100.00;101197.66;4990510;28;20052;-72
2022/01/16 09:35:10;;;;;;;20.40;4.90;;;;;;;5.13;100.00;101195.53;4989616;28;20121;-72
2022/01/16 09:37:36;;;;;;;19.98;5.38;;;;;;;5.11;100.00;101198.50;4981094;28;20038;-73
2022/01/16 09:40:04;;;;;;;16.98;5.70;;;;;;;5.07;100.00;101194.09;4988714;28;20033;-72
2022/01/16 09:42:30;;;;;;;21.58;6.47;;;;;;;4.97;100.00;101197.78;4978909;28;20395;-72
2022/01/16 09:44:56;;;;;;;17.85;5.38;;;;;;;4.98;100.00;101183.34;4976362;28;20059;-72
2022/01/16 09:47:22;;;;;;;18.80;6.25;;;;;;;4.95;100.00;101186.63;4978481;28;20118;-72
2022/01/16 09:49:47;;;;;;;14.32;4.90;;;;;;;5.15;100.00;101182.69;4979517;28;20033;-72
2022/01/16 09:52:13;;;;;;;27.70;6.93;;;;;;;5.01;100.00;101188.09;4988048;28;20042;-72
2022/01/16 09:54:39;;;;;;;21.30;5.85;;;;;;;4.92;100.00;101194.44;4986439;28;20070;-72
2022/01/16 09:57:06;;;;;;;13.05;5.03;;;;;;;5.15;100.00;101194.13;4990986;28;20663;-72
2022/01/16 09:59:32;;;;;;;17.83;5.28;;;;;;;5.24;100.00;101195.00;4989764;28;20041;-72
2022/01/16 10:01:58;;;;;;;25.83;7.90;;;;;;;5.15;100.00;101199.47;4985072;28;20563;-72
2022/01/16 10:04:32;;;;;;;18.95;5.47;;;;;;;5.25;100.00;101193.09;4985120;28;20073;-72
2022/01/16 10:07:00;;;;;;;29.27;6.53;;;;;;;5.17;100.00;101191.94;4974054;28;20031;-72
2022/01/16 10:09:27;;;;;;;20.83;5.60;;;;;;;5.24;100.00;101195.00;4972126;28;20034;-72
2022/01/16 10:11:56;;;;;;;18.42;6.18;;;;;;;5.16;100.00;101192.25;4980391;28;20030;-72
2022/01/16 10:14:31;;;;;;;14.85;4.57;;;;;;;5.27;100.00;101190.91;4980038;28;20038;-72
2022/01/16 10:16:56;;;;;;;16.25;5.20;;;;;;;5.29;100.00;101194.84;4982221;28;20038;-72
2022/01/16 10:19:27;;;;;;;21.90;6.07;;;;;;;5.21;100.00;101195.56;4983262;28;20026;-72
2022/01/16 10:22:01;;;;;;;20.95;5.50;;;;;;;5.16;100.00;101185.03;4976747;28;20038;-72
2022/01/16 10:24:29;;;;;;;21.05;5.03;;;;;;;5.19;100.00;101179.06;4986695;28;20565;-72
2022/01/16 10:27:07;;;;;;;18.90;5.93;;;;;;;5.25;100.00;101167.19;4975302;28;20105;-72
2022/01/16 10:29:37;;;;;;;22.13;5.80;;;;;;;5.21;100.00;101171.56;4974850;28;20045;-72
2022/01/16 10:32:13;;;;;;;16.88;5.45;;;;;;;5.40;100.00;101177.47;4983696;28;20439;-72
2022/01/16 10:34:40;;;;;;;19.50;6.05;;;;;;;5.29;100.00;101162.81;4985611;28;20026;-72
2022/01/16 10:37:48;;;;;;;17.13;5.40;;;;;;;5.31;100.00;101149.16;4986470;28;20663;-72
2022/01/16 10:40:16;;;;;;;21.98;5.50;;;;;;;5.21;100.00;101152.06;4977409;28;20663;-72
2022/01/16 10:42:48;;;;;;;19.00;5.75;;;;;;;5.31;100.00;101151.81;4983851;28;20081;-72
2022/01/16 10:45:15;;;;;;;22.77;5.70;;;;;;;5.32;100.00;101156.06;4986700;28;20593;-72
2022/01/16 10:47:54;;;;;;;19.38;5.78;;;;;;;5.39;100.00;101159.88;4985883;28;20030;-72
2022/01/16 10:50:33;;;;;;;16.65;5.53;;;;;;;5.36;100.00;101152.47;4984386;28;20040;-72
2022/01/16 10:53:02;;;;;;;13.88;6.13;;;;;;;5.53;100.00;101165.88;4970388;28;20030;-72
2022/01/16 10:55:47;;;;;;;29.42;7.30;;;;;;;5.34;100.00;101157.31;4980046;28;20061;-72
2022/01/16 10:58:24;;;;;;;13.15;5.05;;;;;;;5.27;100.00;101164.19;4985214;28;20022;-72
2022/01/16 11:01:04;;;;;;;19.35;6.28;;;;;;;5.09;100.00;101167.88;4984100;28;20046;-72
2022/01/16 11:03:53;;;;;;;21.70;5.07;;;;;;;5.29;100.00;101167.34;4983110;28;20486;-72
2022/01/16 11:06:23;;;;;;;14.18;5.93;;;;;;;5.35;100.00;101172.28;4982539;28;20312;-72
2022/01/16 11:08:51;;;;;;;16.88;5.57;;;;;;;5.34;100.00;101169.91;4987398;28;20041;-72
2022/01/16 11:11:16;;;;;;;18.60;5.53;;;;;;;5.37;100.00;101159.41;4987488;28;20113;-72
2022/01/16 11:13:42;;;;;;;11.63;4.90;;;;;;;5.43;100.00;101158.19;4973854;28;20035;-72
2022/01/16 11:16:08;;;;;;;14.57;6.13;;;;;;;5.34;100.00;101167.25;4974901;28;20043;-72
2022/01/16 11:18:37;;;;;;;12.43;4.78;;;;;;;5.42;100.00;101159.25;4985634;28;20084;-72
2022/01/16 11:21:14;;;;;;;16.75;5.30;;;;;;;5.42;100.00;101161.94;4975285;28;20034;-72
2022/01/16 11:24:11;;;;;;;9.52;4.07;;;;;;;5.44;100.00;101154.41;4981420;28;20038;-72
2022/01/16 11:26:34;;;;;;;12.07;4.43;;;;;;;5.61;100.00;101166.25;4986374;28;20050;-72
2022/01/16 11:29:01;;;;;;;21.73;5.47;;;;;;;5.46;100.00;101159.41;4987679;28;20034;-72
2022/01/16 11:31:27;;;;;;;21.95;5.50;;;;;;;5.44;100.00;101149.06;4984527;28;20447;-72
2022/01/16 11:33:55;;;;;;;11.73;4.22;;;;;;;5.57;100.00;101149.28;4984584;28;20043;-72
2022/01/16 11:36:27;;;;;;;14.43;4.22;;;;;;;5.82;100.00;101162.72;4977924;28;20038;-72
2022/01/16 11:39:00;;;;;;;12.57;4.22;;;;;;;5.84;100.00;101162.44;4990096;28;20050;-72
2022/01/16 11:41:33;;;;;;;14.18;4.25;;;;;;;5.74;100.00;101152.78;5000533;28;20031;-72
2022/01/16 11:44:00;;;;;;;12.82;5.05;;;;;;;5.60;100.00;101157.44;4986249;28;20042;-72
2022/01/16 11:46:28;;;;;;;11.73;4.82;;;;;;;5.51;100.00;101143.28;4988210;28;20491;-72
2022/01/16 11:49:04;;;;;;;11.18;4.28;;;;;;;5.64;100.00;101149.59;4987893;28;20794;-72
2022/01/16 11:53:58;;;;;;;14.82;4.90;;;;;;;5.52;100.00;101152.09;4984322;28;20045;-72
2022/01/16 11:56:39;;;;;;;7.55;3.38;;;;;;;5.69;100.00;101154.81;5001049;28;20478;-72
2022/01/16 11:59:11;;;;;;;10.40;3.47;;;;;;;5.57;100.00;101152.72;4989191;28;20027;-72
2022/01/16 12:01:43;;;;;;;8.25;3.25;;;;;;;5.75;100.00;101149.00;4984762;28;20049;-72
2022/01/16 12:04:38;;;;;;;15.20;4.13;;;;;;;5.49;100.00;101151.59;4990814;28;20042;-72
2022/01/16 12:07:12;;;;;;;8.15;3.58;;;;;;;5.63;100.00;101140.81;4962608;28;20056;-72
2022/01/16 12:12:15;;;;;;;15.70;4.57;;;;;;;5.43;100.00;101144.03;4986620;28;20444;-72